Portada
METAR-TAF:

METAR-TAF

Aeroports :

Kairuan, Tunísia

latitud: 35-40N, longitud: 010-06E, altitud: 60 m

Observació

L'informe es va fer fa 48 minuts, a les 09:00 UTC
Vent 4 kt del Sud-Oest
Temperatura 17°C
Humitat 68%
Pressió 1011 hPa
Visibilitat 10 km o més
sense núvols per sota de 1500 mi sense presència de cumulonimbus.

METAR: DTTK 180900Z 23004KT CAVOK 17/11 Q1011

Hora: 10:48 (09:48 UTC)


TAF: manca

Observacions i pronòstics meteorològics de més de 4000 aeroports (METAR i TAF).

Les estacions disponibles són els punts grocs i vermells al mapa.

Posi el ratolí al punt desitjat per veure el nom de l'estació.

Feu clic per veure les observacions i els pronòstics meteorològics.

Per canviar el mapa: feu clic els botons verds amb una creu de color negre per apropar; al botó verd amb un guió per allunyar la imatge; o en les fletxes verdes per a mapes adjacents.


METAR-TAF: